Time;durP1;ratioP1;P1;durP2;ratioP2;P2;SDS_P1;SDS_P2;PMS_P1;PMS_P2;Temp;Humidity;BMP_temperature;BMP_pressure;BME280_temperature;BME280_humidity;BME280_pressure;Samples;Min_cycle;Max_cycle;Signal;HPM_P1;HPM_P2
2021/03/23 00:00:30;;;;;;;7.38;3.00;;;6.00;99.90;;;;;;4956453;29;20200;-66
2021/03/23 00:02:59;;;;;;;10.38;3.42;;;6.10;99.90;;;;;;4955353;29;20272;-65
2021/03/23 00:05:27;;;;;;;4.40;2.97;;;6.10;99.90;;;;;;4954331;29;20267;-63
2021/03/23 00:07:55;;;;;;;4.18;3.33;;;6.00;99.90;;;;;;4954261;29;20215;-63
2021/03/23 00:10:23;;;;;;;5.95;2.75;;;6.00;99.90;;;;;;4954265;29;20279;-65
2021/03/23 00:12:52;;;;;;;9.63;4.03;;;6.00;99.90;;;;;;4930332;29;20207;-64
2021/03/23 00:15:20;;;;;;;3.05;2.75;;;5.90;99.90;;;;;;4954413;29;20200;-64
2021/03/23 00:17:48;;;;;;;18.27;3.80;;;5.90;99.90;;;;;;4954243;28;20504;-61
2021/03/23 00:20:20;;;;;;;12.10;2.63;;;5.80;99.90;;;;;;4954658;29;20673;-66
2021/03/23 00:22:47;;;;;;;4.57;2.55;;;5.70;99.90;;;;;;4953956;29;20550;-64
2021/03/23 00:25:15;;;;;;;5.78;2.90;;;5.70;99.90;;;;;;4954175;29;20196;-65
2021/03/23 00:27:42;;;;;;;4.57;3.22;;;5.70;99.90;;;;;;4953398;28;20212;-66
2021/03/23 00:30:12;;;;;;;7.13;3.10;;;5.70;99.90;;;;;;4953975;29;20200;-64
2021/03/23 00:32:39;;;;;;;5.70;2.88;;;5.60;99.90;;;;;;4954073;29;20307;-63
2021/03/23 00:35:09;;;;;;;4.13;2.63;;;5.60;99.90;;;;;;4953695;29;20199;-64
2021/03/23 00:37:37;;;;;;;9.90;3.40;;;5.60;99.90;;;;;;4953755;28;20212;-63
2021/03/23 00:40:08;;;;;;;8.10;2.90;;;5.60;99.90;;;;;;4954320;29;20214;-62
2021/03/23 00:42:36;;;;;;;3.72;3.25;;;5.60;99.90;;;;;;4955173;29;20649;-64
2021/03/23 00:45:05;;;;;;;6.85;2.78;;;5.60;99.90;;;;;;4938512;29;20215;-64
2021/03/23 00:47:33;;;;;;;6.30;3.95;;;5.60;99.90;;;;;;4954436;28;20219;-61
2021/03/23 00:50:00;;;;;;;4.50;3.03;;;5.60;99.90;;;;;;4955594;29;20532;-62
2021/03/23 00:52:28;;;;;;;7.60;3.90;;;5.70;99.90;;;;;;4938054;29;20204;-65
2021/03/23 00:54:56;;;;;;;5.18;2.72;;;5.70;99.90;;;;;;4955911;29;20235;-62
2021/03/23 00:57:23;;;;;;;3.88;2.05;;;5.60;99.90;;;;;;4937087;29;20269;-63
2021/03/23 00:59:50;;;;;;;3.88;3.42;;;5.60;99.90;;;;;;4954952;28;20652;-65
2021/03/23 01:02:17;;;;;;;6.07;2.60;;;5.60;99.90;;;;;;4955392;29;20216;-63
2021/03/23 01:04:46;;;;;;;11.65;3.88;;;5.60;99.90;;;;;;4956450;29;20723;-64
2021/03/23 01:07:13;;;;;;;1.95;1.45;;;5.60;99.90;;;;;;4955054;28;20211;-64
2021/03/23 01:09:41;;;;;;;7.53;2.75;;;5.50;99.90;;;;;;4953477;29;20191;-65
2021/03/23 01:12:09;;;;;;;5.47;3.28;;;5.60;99.90;;;;;;4952652;29;20618;-63
2021/03/23 01:14:37;;;;;;;5.43;2.95;;;5.60;99.90;;;;;;4952484;29;20688;-64
2021/03/23 01:17:05;;;;;;;4.53;2.75;;;5.60;99.90;;;;;;4952509;28;20226;-64
2021/03/23 01:19:33;;;;;;;2.60;2.10;;;5.60;99.90;;;;;;4952142;29;20200;-64
2021/03/23 01:22:02;;;;;;;2.53;1.85;;;5.60;99.90;;;;;;4948939;29;20191;-63
2021/03/23 01:24:35;;;;;;;12.95;2.45;;;5.50;99.90;;;;;;4949164;29;20306;-64
2021/03/23 01:27:02;;;;;;;3.35;2.60;;;5.60;99.90;;;;;;4951875;28;20231;-63
2021/03/23 01:29:30;;;;;;;4.18;2.65;;;5.50;99.90;;;;;;4952057;29;20204;-65
2021/03/23 01:31:58;;;;;;;3.10;1.50;;;5.60;99.90;;;;;;4952347;29;20191;-65
2021/03/23 01:34:44;;;;;;;6.57;2.15;;;5.50;99.90;;;;;;4952691;29;20188;-65
2021/03/23 01:37:12;;;;;;;3.03;2.30;;;5.60;99.90;;;;;;4951185;28;20310;-64
2021/03/23 01:39:40;;;;;;;2.85;2.25;;;5.60;99.90;;;;;;4952686;29;20211;-64
2021/03/23 01:42:09;;;;;;;4.70;2.47;;;5.50;99.90;;;;;;4953168;29;20187;-65
2021/03/23 01:44:38;;;;;;;4.50;2.28;;;5.50;99.90;;;;;;4952471;29;20211;-63
2021/03/23 01:47:06;;;;;;;9.05;2.58;;;5.40;99.90;;;;;;4949517;28;20227;-65
2021/03/23 01:49:37;;;;;;;8.82;3.33;;;5.40;99.90;;;;;;4952142;29;20661;-65
2021/03/23 01:52:09;;;;;;;5.90;3.40;;;5.40;99.90;;;;;;4952325;29;20192;-65
2021/03/23 01:54:43;;;;;;;3.55;2.67;;;5.40;99.90;;;;;;4949204;29;20188;-64
2021/03/23 01:57:12;;;;;;;9.15;3.72;;;5.40;99.90;;;;;;4951994;28;20219;-64
2021/03/23 01:59:43;;;;;;;3.42;2.10;;;5.40;99.90;;;;;;4951822;29;20204;-64
2021/03/23 02:02:11;;;;;;;2.50;2.30;;;5.40;99.90;;;;;;4952414;29;20199;-65
2021/03/23 02:04:38;;;;;;;4.68;3.28;;;5.40;99.90;;;;;;4952033;29;20239;-63
2021/03/23 02:07:06;;;;;;;3.42;2.70;;;5.30;99.90;;;;;;4944285;28;20216;-65
2021/03/23 02:09:36;;;;;;;5.47;4.47;;;5.30;99.90;;;;;;4951847;29;20224;-63
2021/03/23 02:12:07;;;;;;;5.18;4.18;;;5.30;99.90;;;;;;4952648;28;20206;-65
2021/03/23 02:14:37;;;;;;;7.38;3.35;;;5.20;99.90;;;;;;4955898;29;20198;-64
2021/03/23 02:17:16;;;;;;;5.10;3.33;;;5.30;99.90;;;;;;4955723;28;20752;-64
2021/03/23 02:19:44;;;;;;;4.82;3.95;;;5.30;99.90;;;;;;4955932;29;20251;-65
2021/03/23 02:22:23;;;;;;;3.50;3.20;;;5.20;99.90;;;;;;4955878;29;20200;-65
2021/03/23 02:24:50;;;;;;;6.72;4.72;;;5.30;99.90;;;;;;4955683;29;20208;-64
2021/03/23 02:27:18;;;;;;;6.05;4.22;;;5.30;99.90;;;;;;4955547;28;20215;-63
2021/03/23 02:29:45;;;;;;;8.35;5.20;;;5.30;99.90;;;;;;4955487;29;20200;-64
2021/03/23 02:32:12;;;;;;;10.00;4.65;;;5.30;99.90;;;;;;4956242;29;20617;-64
2021/03/23 02:34:40;;;;;;;8.30;5.72;;;5.30;99.90;;;;;;4956226;29;20545;-64
2021/03/23 02:37:07;;;;;;;11.32;5.10;;;5.20;99.90;;;;;;4956508;28;20705;-64
2021/03/23 02:39:35;;;;;;;8.60;5.25;;;5.20;99.90;;;;;;4955249;29;20227;-64
2021/03/23 02:42:04;;;;;;;5.88;4.70;;;5.10;99.90;;;;;;4955468;29;20744;-64
2021/03/23 02:44:39;;;;;;;6.32;4.65;;;5.10;99.90;;;;;;4955538;29;20223;-64
2021/03/23 02:47:07;;;;;;;10.55;6.25;;;5.10;99.90;;;;;;4956000;28;20211;-64
2021/03/23 02:49:38;;;;;;;10.23;6.05;;;5.10;99.90;;;;;;4955669;29;20272;-64
2021/03/23 02:52:06;;;;;;;14.20;5.68;;;5.00;99.90;;;;;;4955993;29;20283;-63
2021/03/23 02:54:34;;;;;;;8.40;5.93;;;5.00;99.90;;;;;;4955296;29;20188;-64
2021/03/23 02:57:02;;;;;;;6.63;5.18;;;5.00;99.90;;;;;;4937634;29;20216;-65
2021/03/23 02:59:29;;;;;;;10.93;5.93;;;5.00;99.90;;;;;;4955050;29;20196;-65
2021/03/23 03:01:56;;;;;;;8.48;5.20;;;5.00;99.90;;;;;;4954896;29;20200;-64
2021/03/23 03:04:23;;;;;;;7.00;5.68;;;5.00;99.90;;;;;;4955445;29;20677;-65
2021/03/23 03:06:51;;;;;;;8.48;5.53;;;5.00;99.90;;;;;;4955128;28;20212;-63
2021/03/23 03:09:18;;;;;;;10.65;5.05;;;5.10;99.90;;;;;;4955506;29;20188;-62
2021/03/23 03:11:46;;;;;;;8.38;4.95;;;5.00;99.90;;;;;;4955518;29;20196;-63
2021/03/23 03:14:13;;;;;;;10.02;5.90;;;5.00;99.90;;;;;;4951824;29;20200;-65
2021/03/23 03:16:40;;;;;;;6.60;5.88;;;4.90;99.90;;;;;;4954668;28;20222;-63
2021/03/23 03:19:07;;;;;;;7.00;4.13;;;4.90;99.90;;;;;;4955564;29;20243;-64
2021/03/23 03:21:35;;;;;;;9.98;5.60;;;4.90;99.90;;;;;;4955328;29;20243;-63
2021/03/23 03:24:02;;;;;;;7.80;5.50;;;4.90;99.90;;;;;;4955160;28;20296;-63
2021/03/23 03:26:29;;;;;;;8.38;4.65;;;4.90;99.90;;;;;;4937809;29;20224;-61
2021/03/23 03:28:57;;;;;;;11.40;6.07;;;4.90;99.90;;;;;;4955199;29;20196;-61
2021/03/23 03:31:26;;;;;;;6.88;5.85;;;5.00;99.90;;;;;;4955310;29;20192;-63
2021/03/23 03:33:56;;;;;;;9.27;5.30;;;4.90;99.90;;;;;;4955504;29;20189;-66
2021/03/23 03:36:25;;;;;;;16.25;4.60;;;4.90;99.90;;;;;;4953442;28;20271;-65
2021/03/23 03:38:53;;;;;;;7.72;5.60;;;4.90;99.90;;;;;;4955186;29;20549;-65
2021/03/23 03:41:21;;;;;;;7.55;4.63;;;4.90;99.90;;;;;;4951848;29;20200;-65
2021/03/23 03:43:49;;;;;;;7.25;4.20;;;4.90;99.90;;;;;;4955129;29;20223;-65
2021/03/23 03:46:17;;;;;;;8.43;5.40;;;4.90;99.90;;;;;;4954906;28;20242;-64
2021/03/23 03:48:45;;;;;;;4.57;3.22;;;4.90;99.90;;;;;;4937664;29;20298;-64
2021/03/23 03:51:12;;;;;;;5.40;3.67;;;4.90;99.90;;;;;;4954276;29;20200;-59
2021/03/23 03:53:40;;;;;;;8.65;4.35;;;4.90;99.90;;;;;;4955436;29;20192;-62
2021/03/23 03:56:08;;;;;;;4.53;2.97;;;4.90;99.90;;;;;;4956128;28;20231;-64
2021/03/23 03:58:35;;;;;;;10.23;4.32;;;4.90;99.90;;;;;;4951031;29;20200;-64
2021/03/23 04:01:03;;;;;;;8.82;4.97;;;4.80;99.90;;;;;;4973275;23;20711;-66
2021/03/23 04:03:31;;;;;;;6.18;5.47;;;4.80;99.90;;;;;;4962635;28;20192;-64
2021/03/23 04:06:00;;;;;;;7.30;4.72;;;4.80;99.90;;;;;;4950158;29;20220;-64
2021/03/23 04:08:29;;;;;;;8.02;5.10;;;4.80;99.90;;;;;;4934837;29;20642;-66
2021/03/23 04:10:58;;;;;;;5.43;2.80;;;4.80;99.90;;;;;;4934945;29;20181;-66
2021/03/23 04:13:25;;;;;;;3.03;2.72;;;4.90;99.90;;;;;;4934719;29;20211;-66
2021/03/23 04:15:53;;;;;;;5.40;4.00;;;4.80;99.90;;;;;;4930023;29;20705;-64
2021/03/23 04:18:23;;;;;;;5.05;4.03;;;4.80;99.90;;;;;;4916153;29;20185;-64
2021/03/23 04:20:52;;;;;;;8.80;3.20;;;4.80;99.90;;;;;;4953501;29;20270;-65
2021/03/23 04:23:25;;;;;;;5.15;3.78;;;4.80;99.90;;;;;;4953759;29;20172;-67
2021/03/23 04:25:52;;;;;;;5.95;2.95;;;4.70;99.90;;;;;;4953280;29;20212;-67
2021/03/23 04:28:21;;;;;;;5.18;3.15;;;4.80;99.90;;;;;;4954002;29;20271;-66
2021/03/23 04:30:49;;;;;;;5.32;3.65;;;4.70;99.90;;;;;;4936629;29;20207;-66
2021/03/23 04:33:17;;;;;;;10.00;3.58;;;4.80;99.90;;;;;;4953719;29;20267;-66
2021/03/23 04:35:47;;;;;;;9.43;3.58;;;4.80;99.90;;;;;;4952850;28;20188;-65
2021/03/23 04:38:18;;;;;;;4.75;3.75;;;4.70;99.90;;;;;;4953969;29;20537;-66
2021/03/23 04:40:46;;;;;;;5.18;3.35;;;4.70;99.90;;;;;;4953237;29;20191;-66
2021/03/23 04:43:20;;;;;;;4.63;3.60;;;4.70;99.90;;;;;;4953362;29;20267;-66
2021/03/23 04:45:47;;;;;;;5.03;3.75;;;4.70;99.90;;;;;;4953100;29;20216;-66
2021/03/23 04:48:15;;;;;;;4.53;2.22;;;4.70;99.90;;;;;;4943833;29;20256;-66
2021/03/23 04:50:42;;;;;;;4.65;2.50;;;4.70;99.90;;;;;;4934229;29;20562;-66
2021/03/23 04:53:19;;;;;;;3.20;2.45;;;4.70;99.90;;;;;;4934639;29;20188;-65
2021/03/23 04:55:46;;;;;;;3.70;2.35;;;4.70;99.90;;;;;;4933786;29;20212;-66
2021/03/23 04:58:14;;;;;;;3.50;2.90;;;4.70;99.90;;;;;;4934295;29;20224;-65
2021/03/23 05:00:41;;;;;;;2.92;2.00;;;4.70;99.90;;;;;;4937262;28;20296;-65
2021/03/23 05:03:16;;;;;;;2.17;1.92;;;4.70;99.90;;;;;;4953044;29;20231;-66
2021/03/23 05:05:44;;;;;;;2.38;1.80;;;4.70;99.90;;;;;;4952658;29;20227;-66
2021/03/23 05:08:12;;;;;;;1.88;1.23;;;4.70;99.90;;;;;;4952930;29;20274;-66
2021/03/23 05:10:40;;;;;;;3.50;2.17;;;4.70;99.90;;;;;;4952829;29;20192;-66
2021/03/23 05:13:07;;;;;;;4.00;1.77;;;4.70;99.90;;;;;;4952738;29;20573;-65
2021/03/23 05:15:34;;;;;;;2.97;2.00;;;4.80;99.90;;;;;;4951523;29;20654;-66
2021/03/23 05:18:01;;;;;;;3.20;2.10;;;4.80;99.90;;;;;;4952559;29;20196;-66
2021/03/23 05:20:29;;;;;;;2.72;2.17;;;4.80;99.90;;;;;;4952793;29;20203;-66
2021/03/23 05:22:56;;;;;;;2.70;1.90;;;4.80;99.90;;;;;;4952698;29;20271;-67
2021/03/23 05:25:23;;;;;;;3.13;2.35;;;4.80;99.90;;;;;;4952941;29;20218;-67
2021/03/23 05:27:51;;;;;;;1.83;1.55;;;4.70;99.90;;;;;;4952643;29;20236;-66
2021/03/23 05:30:20;;;;;;;3.38;2.53;;;4.70;99.90;;;;;;4935690;29;20711;-66
2021/03/23 05:32:47;;;;;;;1.90;1.60;;;4.70;99.90;;;;;;4951164;29;20204;-66
2021/03/23 05:35:16;;;;;;;3.00;2.13;;;4.70;99.90;;;;;;4952484;29;20189;-67
2021/03/23 05:37:49;;;;;;;2.25;1.42;;;4.70;99.90;;;;;;4952315;29;20236;-66
2021/03/23 05:40:22;;;;;;;3.42;2.22;;;4.80;99.90;;;;;;4952654;29;20198;-66
2021/03/23 05:43:01;;;;;;;4.78;1.52;;;4.90;99.90;;;;;;4952676;29;20172;-65
2021/03/23 05:45:34;;;;;;;5.45;2.92;;;4.90;99.90;;;;;;4952829;29;20199;-65
2021/03/23 05:48:15;;;;;;;3.08;1.85;;;4.90;99.90;;;;;;4952561;29;20200;-64
2021/03/23 05:50:46;;;;;;;4.20;2.35;;;4.90;99.90;;;;;;4935585;29;20677;-66
2021/03/23 05:53:18;;;;;;;9.82;3.53;;;5.00;99.90;;;;;;4952201;29;20215;-64
2021/03/23 05:55:47;;;;;;;6.18;2.80;;;4.90;99.90;;;;;;4952020;29;20172;-65
2021/03/23 05:58:22;;;;;;;5.85;3.00;;;5.00;99.90;;;;;;4951984;28;20234;-65
2021/03/23 06:00:56;;;;;;;4.53;3.25;;;5.00;99.90;;;;;;4952096;28;20587;-66
2021/03/23 06:03:28;;;;;;;4.45;2.70;;;5.00;99.90;;;;;;4951849;29;20194;-66
2021/03/23 06:06:03;;;;;;;4.82;3.00;;;5.10;99.90;;;;;;4951881;29;20279;-65
2021/03/23 06:08:33;;;;;;;3.80;2.38;;;5.20;99.90;;;;;;4952248;29;20168;-66
2021/03/23 06:11:34;;;;;;;3.83;3.45;;;5.20;99.90;;;;;;4952497;29;20192;-67
2021/03/23 06:14:28;;;;;;;6.85;2.97;;;5.20;99.90;;;;;;4929089;29;20208;-64
2021/03/23 06:17:05;;;;;;;2.95;2.50;;;5.30;99.90;;;;;;4942559;29;20212;-66
2021/03/23 06:19:42;;;;;;;4.03;3.03;;;5.30;99.90;;;;;;4934766;29;20196;-67
2021/03/23 06:22:23;;;;;;;5.68;3.53;;;5.40;99.90;;;;;;4932780;29;20220;-65
2021/03/23 06:24:58;;;;;;;5.20;2.83;;;5.50;99.90;;;;;;4932760;29;20631;-67
2021/03/23 06:27:33;;;;;;;6.20;3.70;;;5.60;99.90;;;;;;4932781;29;20222;-65
2021/03/23 06:30:30;;;;;;;7.43;3.20;;;5.60;99.90;;;;;;4932861;29;20193;-66
2021/03/23 06:32:58;;;;;;;4.32;2.40;;;5.60;99.90;;;;;;4932690;29;20203;-67
2021/03/23 06:35:31;;;;;;;4.40;2.72;;;5.50;99.90;;;;;;4932765;29;20228;-66
2021/03/23 06:38:05;;;;;;;4.97;3.20;;;5.40;99.90;;;;;;4932953;29;20227;-66
2021/03/23 06:40:36;;;;;;;7.72;4.40;;;5.50;99.90;;;;;;4932632;29;20618;-66
2021/03/23 06:43:17;;;;;;;3.25;1.92;;;5.40;99.90;;;;;;4933082;29;20193;-66
2021/03/23 06:45:45;;;;;;;6.63;3.58;;;5.40;99.90;;;;;;4932640;29;20228;-65
2021/03/23 06:48:23;;;;;;;5.70;4.25;;;5.30;99.90;;;;;;4924610;29;20205;-65
2021/03/23 06:51:04;;;;;;;6.00;3.70;;;5.30;99.90;;;;;;4912365;29;20212;-66
2021/03/23 06:53:32;;;;;;;5.65;2.95;;;5.30;99.90;;;;;;4913854;29;20198;-65
2021/03/23 06:56:17;;;;;;;4.47;2.55;;;5.30;99.90;;;;;;4913735;29;20732;-67
2021/03/23 06:58:45;;;;;;;5.45;2.78;;;5.40;99.90;;;;;;4915121;29;20237;-67
2021/03/23 07:01:16;;;;;;;3.53;3.03;;;5.50;99.90;;;;;;4932761;29;20210;-67
2021/03/23 07:03:45;;;;;;;6.00;3.08;;;5.50;99.90;;;;;;4955552;29;20200;-66
2021/03/23 07:06:21;;;;;;;7.80;4.25;;;5.60;99.90;;;;;;4954797;28;20220;-66
2021/03/23 07:09:20;;;;;;;7.68;2.80;;;5.50;99.90;;;;;;4954865;29;20240;-66
2021/03/23 07:12:00;;;;;;;4.82;3.05;;;5.60;99.90;;;;;;4955330;29;20283;-67
2021/03/23 07:14:36;;;;;;;6.10;2.80;;;5.50;99.90;;;;;;4954743;29;20251;-65
2021/03/23 07:17:24;;;;;;;3.42;2.15;;;5.50;99.90;;;;;;4954970;29;20282;-66
2021/03/23 07:19:56;;;;;;;4.47;2.28;;;5.50;99.90;;;;;;4937513;29;20204;-66
2021/03/23 07:22:35;;;;;;;11.75;2.30;;;5.50;99.90;;;;;;4954758;29;20219;-68
2021/03/23 07:25:07;;;;;;;3.63;2.40;;;5.50;99.90;;;;;;4955173;28;20212;-65
2021/03/23 07:27:35;;;;;;;5.50;3.20;;;5.50;99.90;;;;;;4955057;29;20572;-67
2021/03/23 07:30:33;;;;;;;4.25;3.42;;;5.50;99.90;;;;;;4957289;28;20195;-67
2021/03/23 07:33:06;;;;;;;7.65;3.20;;;5.50;99.90;;;;;;4913802;29;20190;-67
2021/03/23 07:35:37;;;;;;;8.40;4.10;;;5.60;99.90;;;;;;4939639;28;20200;-65
2021/03/23 07:38:18;;;;;;;4.38;2.58;;;5.60;2.40;;;;;;4957427;28;20215;-66
2021/03/23 07:40:47;;;;;;;5.85;2.85;;;5.80;1.00;;;;;;4974044;28;20211;-64
2021/03/23 07:43:32;;;;;;;3.55;2.83;;;5.80;1.00;;;;;;4974088;28;20191;-67
2021/03/23 07:46:04;;;;;;;6.03;2.55;;;5.80;1.00;;;;;;4973302;28;20223;-66
2021/03/23 07:48:43;;;;;;;5.15;3.13;;;5.80;1.00;;;;;;4972941;28;20206;-65
2021/03/23 07:51:23;;;;;;;3.20;2.55;;;5.80;99.90;;;;;;4974077;28;20267;-65
2021/03/23 07:53:51;;;;;;;5.00;2.50;;;5.70;99.90;;;;;;4972802;28;20214;-66
2021/03/23 07:56:30;;;;;;;9.48;2.97;;;5.60;99.90;;;;;;4973466;28;20708;-65
2021/03/23 07:59:05;;;;;;;5.55;2.85;;;5.60;99.90;;;;;;4972635;28;20712;-67
2021/03/23 08:01:45;;;;;;;4.65;2.92;;;5.70;99.90;;;;;;4964077;28;20226;-66
2021/03/23 08:04:17;;;;;;;3.88;2.50;;;5.70;99.90;;;;;;4975030;28;20183;-66
2021/03/23 08:07:15;;;;;;;6.88;4.00;;;5.70;1.00;;;;;;4985479;28;20219;-66
2021/03/23 08:10:27;;;;;;;12.43;5.90;;;5.70;1.00;;;;;;4975202;28;20195;-67
2021/03/23 08:13:09;;;;;;;10.18;4.25;;;5.70;99.90;;;;;;4989707;28;20555;-65
2021/03/23 08:15:48;;;;;;;7.38;3.28;;;5.90;99.90;;;;;;4974530;28;20282;-68
2021/03/23 08:18:50;;;;;;;7.90;3.13;;;6.00;1.00;;;;;;4974793;28;20175;-69
2021/03/23 08:21:59;;;;;;;3.72;2.67;;;6.00;1.00;;;;;;4974336;28;20187;-69
2021/03/23 08:24:43;;;;;;;13.73;3.17;;;5.80;99.90;;;;;;4949200;28;20338;-69
2021/03/23 08:27:29;;;;;;;4.13;2.67;;;5.70;1.00;;;;;;4971775;28;20227;-69
2021/03/23 08:30:08;;;;;;;6.53;2.65;;;5.70;99.90;;;;;;4973254;28;20199;-69
2021/03/23 08:32:43;;;;;;;5.65;2.72;;;5.80;1.00;;;;;;4972238;28;20203;-68
2021/03/23 08:35:33;;;;;;;4.28;2.28;;;5.70;1.00;;;;;;4973892;28;20191;-69
2021/03/23 08:38:19;;;;;;;3.55;2.28;;;5.80;1.00;;;;;;4973413;28;20270;-68
2021/03/23 08:40:52;;;;;;;9.82;2.83;;;5.90;99.90;;;;;;4971623;28;20202;-65
2021/03/23 08:43:27;;;;;;;5.03;3.10;;;5.90;99.90;;;;;;4973332;28;20216;-65
2021/03/23 08:45:57;;;;;;;3.63;2.75;;;5.80;4.90;;;;;;4964116;28;20298;-65
2021/03/23 08:48:38;;;;;;;8.18;3.75;;;5.90;25.10;;;;;;4952962;29;20298;-66
2021/03/23 08:51:11;;;;;;;3.47;2.90;;;5.90;1.00;;;;;;4952163;29;20189;-67
2021/03/23 08:54:00;;;;;;;3.05;2.70;;;5.70;1.00;;;;;;4974463;28;20200;-68
2021/03/23 08:56:54;;;;;;;4.32;3.50;;;5.60;99.90;;;;;;4962801;28;20251;-65
2021/03/23 08:59:49;;;;;;;2.70;1.70;;;5.70;99.90;;;;;;4957739;28;20626;-66
2021/03/23 09:02:48;;;;;;;5.05;3.70;;;5.80;99.90;;;;;;4948331;28;20207;-64
2021/03/23 09:05:37;;;;;;;2.72;2.38;;;5.90;99.90;;;;;;4941352;29;20216;-66
2021/03/23 09:08:43;;;;;;;3.80;3.00;;;5.80;99.90;;;;;;4948194;29;20191;-66
2021/03/23 09:11:15;;;;;;;3.42;2.20;;;6.00;99.90;;;;;;4933919;29;20181;-65
2021/03/23 09:14:16;;;;;;;3.88;3.47;;;6.00;99.90;;;;;;4935883;29;20263;-66
2021/03/23 09:16:50;;;;;;;3.60;2.20;;;6.10;99.90;;;;;;4935795;29;20632;-66
2021/03/23 09:19:39;;;;;;;9.77;2.88;;;6.30;99.90;;;;;;4958435;29;20181;-66
2021/03/23 09:22:26;;;;;;;2.53;2.25;;;6.50;99.90;;;;;;4956378;28;20184;-67
2021/03/23 09:25:42;;;;;;;4.32;3.50;;;6.60;17.90;;;;;;4937519;29;20279;-65
2021/03/23 09:28:13;;;;;;;4.65;3.15;;;6.70;1.00;;;;;;4924543;29;20204;-65
2021/03/23 09:30:53;;;;;;;4.90;3.08;;;6.70;99.90;;;;;;4937776;29;20185;-65
2021/03/23 09:33:37;;;;;;;3.33;2.42;;;6.90;1.00;;;;;;4940526;29;20212;-64
2021/03/23 09:36:37;;;;;;;3.17;2.20;;;6.80;1.00;;;;;;4939881;29;20205;-66
2021/03/23 09:39:38;;;;;;;3.17;2.03;;;7.00;1.00;;;;;;4941447;29;20181;-66
2021/03/23 09:42:22;;;;;;;3.92;2.78;;;7.10;1.00;;;;;;4882274;29;20235;-64
2021/03/23 09:45:04;;;;;;;2.60;1.80;;;7.00;1.00;;;;;;4879956;29;20251;-64
2021/03/23 09:47:55;;;;;;;3.38;1.85;;;6.90;1.00;;;;;;4922830;29;20224;-64
2021/03/23 09:50:31;;;;;;;3.40;2.17;;;6.80;1.00;;;;;;4942219;29;20231;-65
2021/03/23 09:53:14;;;;;;;3.20;2.30;;;6.90;1.00;;;;;;4942612;29;20200;-64
2021/03/23 09:55:42;;;;;;;3.15;2.15;;;7.10;1.00;;;;;;4926704;29;20605;-65
2021/03/23 09:58:19;;;;;;;4.78;2.30;;;7.30;1.00;;;;;;4940387;29;20209;-65
2021/03/23 10:00:48;;;;;;;5.45;2.10;;;7.20;99.90;;;;;;4955376;23;20232;-66
2021/03/23 10:03:19;;;;;;;2.28;1.80;;;7.30;99.90;;;;;;4937380;29;20194;-66
2021/03/23 10:05:59;;;;;;;2.40;1.88;;;7.30;99.90;;;;;;4934096;28;20200;-67
2021/03/23 10:08:32;;;;;;;2.45;1.85;;;7.50;99.90;;;;;;4952275;29;20202;-65
2021/03/23 10:11:11;;;;;;;3.30;2.55;;;7.60;99.90;;;;;;4951758;29;20198;-65
2021/03/23 10:13:45;;;;;;;5.55;1.60;;;8.00;1.00;;;;;;4952203;29;20641;-65
2021/03/23 10:16:23;;;;;;;3.00;2.15;;;8.10;99.90;;;;;;4951927;28;20216;-65
2021/03/23 10:18:50;;;;;;;2.83;1.90;;;8.20;99.90;;;;;;4951764;29;20208;-66
2021/03/23 10:21:25;;;;;;;2.58;1.95;;;8.40;99.90;;;;;;4952023;29;20369;-66
2021/03/23 10:23:56;;;;;;;3.13;2.08;;;8.40;99.90;;;;;;4946350;29;20437;-65
2021/03/23 10:26:25;;;;;;;3.38;1.88;;;8.50;99.90;;;;;;4951635;28;20224;-65
2021/03/23 10:28:55;;;;;;;3.05;2.25;;;8.40;99.90;;;;;;4931655;29;20188;-65
2021/03/23 10:31:35;;;;;;;2.15;1.42;;;8.10;99.90;;;;;;4945318;29;20668;-68
2021/03/23 10:34:07;;;;;;;2.47;1.48;;;8.20;99.90;;;;;;4954190;28;20184;-66
2021/03/23 10:36:46;;;;;;;4.97;2.60;;;8.30;99.90;;;;;;4955173;28;20243;-69
2021/03/23 10:39:31;;;;;;;5.35;2.10;;;8.50;99.90;;;;;;4955922;29;20184;-65
2021/03/23 10:42:00;;;;;;;5.68;1.85;;;8.50;99.90;;;;;;4956127;29;20546;-68
2021/03/23 10:44:29;;;;;;;4.32;3.25;;;8.80;99.90;;;;;;4952061;29;20235;-65
2021/03/23 10:46:59;;;;;;;3.85;1.75;;;8.80;99.90;;;;;;4955598;28;20311;-66
2021/03/23 10:49:33;;;;;;;6.68;2.05;;;8.80;99.90;;;;;;4938430;29;20203;-64
2021/03/23 10:52:04;;;;;;;3.47;2.03;;;9.00;99.90;;;;;;4954233;29;20696;-66
2021/03/23 10:54:33;;;;;;;4.53;2.85;;;9.00;99.90;;;;;;4955531;29;20199;-64
2021/03/23 10:57:26;;;;;;;1.90;1.20;;;8.90;99.90;;;;;;4955802;28;20708;-65
2021/03/23 10:59:54;;;;;;;2.55;1.58;;;8.90;99.90;;;;;;4955771;29;20286;-71
2021/03/23 11:02:28;;;;;;;3.65;3.00;;;8.60;99.90;;;;;;4955249;28;20192;-67
2021/03/23 11:05:09;;;;;;;2.78;2.15;;;8.70;99.90;;;;;;4954108;29;20437;-65
2021/03/23 11:07:38;;;;;;;2.00;1.70;;;8.80;99.90;;;;;;4953009;28;20235;-65
2021/03/23 11:10:09;;;;;;;2.42;0.95;;;9.10;99.90;;;;;;4956200;29;20602;-64
2021/03/23 11:12:36;;;;;;;3.22;1.92;;;9.10;99.90;;;;;;4955602;29;20661;-64
2021/03/23 11:15:05;;;;;;;1.73;1.48;;;9.30;99.90;;;;;;4955309;29;20192;-66
2021/03/23 11:17:43;;;;;;;5.53;2.30;;;9.20;99.90;;;;;;4955450;28;20204;-66
2021/03/23 11:20:20;;;;;;;2.25;1.45;;;8.90;99.90;;;;;;4954854;29;20192;-65
2021/03/23 11:22:49;;;;;;;3.40;1.50;;;8.90;99.90;;;;;;4955461;29;20196;-65
2021/03/23 11:25:18;;;;;;;2.45;1.63;;;8.90;99.90;;;;;;4955021;29;20218;-64
2021/03/23 11:27:46;;;;;;;1.63;1.10;;;9.20;99.90;;;;;;4955208;28;20291;-65
2021/03/23 11:30:14;;;;;;;2.20;1.60;;;9.30;99.90;;;;;;4955188;29;20203;-66
2021/03/23 11:32:44;;;;;;;3.17;1.75;;;9.50;99.90;;;;;;4954390;29;20557;-66
2021/03/23 11:35:12;;;;;;;4.65;3.33;;;9.80;99.90;;;;;;4956509;29;20211;-65
2021/03/23 11:37:39;;;;;;;3.80;2.55;;;10.00;99.90;;;;;;4954769;28;20227;-65
2021/03/23 11:40:09;;;;;;;1.83;1.35;;;10.10;99.90;;;;;;4956491;29;20202;-67
2021/03/23 11:42:40;;;;;;;1.88;1.35;;;10.00;99.90;;;;;;4955680;29;20194;-65
2021/03/23 11:45:18;;;;;;;1.38;1.05;;;9.70;99.90;;;;;;4936352;29;20197;-65
2021/03/23 11:47:54;;;;;;;2.70;1.52;;;9.30;99.90;;;;;;4936234;29;20215;-66
2021/03/23 11:50:25;;;;;;;2.63;1.52;;;9.10;99.90;;;;;;4958149;29;20195;-66
2021/03/23 11:52:53;;;;;;;1.83;1.67;;;9.10;99.90;;;;;;4951945;29;20612;-65
2021/03/23 11:55:26;;;;;;;2.88;1.55;;;9.20;99.90;;;;;;4956782;29;20180;-66
2021/03/23 11:57:54;;;;;;;1.33;1.23;;;9.20;99.90;;;;;;4939975;29;20208;-66
2021/03/23 12:00:26;;;;;;;3.25;1.50;;;9.10;99.90;;;;;;4957552;29;20204;-66
2021/03/23 12:02:55;;;;;;;1.50;1.40;;;8.90;99.90;;;;;;4949265;29;20192;-67
2021/03/23 12:05:24;;;;;;;4.43;1.55;;;8.80;99.90;;;;;;4951321;29;20239;-65
2021/03/23 12:08:06;;;;;;;6.47;2.03;;;8.80;99.90;;;;;;4957246;28;20207;-65
2021/03/23 12:10:39;;;;;;;2.28;1.70;;;8.40;99.90;;;;;;4957169;28;20187;-66
2021/03/23 12:13:15;;;;;;;3.38;2.25;;;8.30;99.90;;;;;;4957613;28;20181;-66
2021/03/23 12:15:46;;;;;;;3.80;3.22;;;8.30;99.90;;;;;;4957592;28;20570;-67
2021/03/23 12:18:18;;;;;;;2.42;2.05;;;8.10;99.90;;;;;;4958418;28;20557;-66
2021/03/23 12:20:55;;;;;;;3.55;2.30;;;8.00;99.90;;;;;;4956763;29;20207;-65
2021/03/23 12:23:22;;;;;;;2.33;1.60;;;8.00;99.90;;;;;;4957121;29;20176;-66
2021/03/23 12:25:52;;;;;;;2.17;1.92;;;8.00;99.90;;;;;;4956313;28;20188;-66
2021/03/23 12:28:19;;;;;;;2.00;1.80;;;8.00;99.90;;;;;;4956610;29;20275;-66
2021/03/23 12:30:46;;;;;;;3.88;2.90;;;8.10;99.90;;;;;;4956579;29;20196;-67
2021/03/23 12:33:14;;;;;;;6.05;2.95;;;8.50;99.90;;;;;;4957038;29;20686;-67
2021/03/23 12:35:42;;;;;;;2.95;2.53;;;8.70;99.90;;;;;;4954051;28;20216;-66
2021/03/23 12:38:12;;;;;;;3.67;2.25;;;8.50;99.90;;;;;;4953476;28;20720;-65
2021/03/23 12:40:39;;;;;;;1.98;1.77;;;8.40;99.90;;;;;;4953103;29;20180;-66
2021/03/23 12:43:12;;;;;;;3.78;1.80;;;8.50;99.90;;;;;;4953754;29;20188;-66
2021/03/23 12:45:41;;;;;;;1.75;1.65;;;8.60;99.90;;;;;;4953114;28;20191;-66
2021/03/23 12:48:10;;;;;;;2.70;2.05;;;8.70;99.90;;;;;;4953597;29;20196;-66
2021/03/23 12:50:38;;;;;;;2.78;1.30;;;8.70;99.90;;;;;;4953356;28;20259;-66
2021/03/23 12:53:11;;;;;;;2.00;1.90;;;8.70;99.90;;;;;;4953705;29;20341;-67
2021/03/23 12:55:40;;;;;;;3.50;2.22;;;8.70;99.90;;;;;;4951066;28;20222;-66
2021/03/23 12:58:13;;;;;;;2.42;1.80;;;8.70;99.90;;;;;;4953796;29;20193;-64
2021/03/23 13:00:40;;;;;;;3.85;2.00;;;8.90;99.90;;;;;;4953936;28;20191;-65
2021/03/23 13:03:12;;;;;;;2.58;1.70;;;9.00;99.90;;;;;;4954277;29;20180;-65
2021/03/23 13:05:40;;;;;;;3.08;1.73;;;9.00;99.90;;;;;;4953479;28;20685;-65
2021/03/23 13:08:19;;;;;;;2.63;2.17;;;8.80;99.90;;;;;;4953517;29;20204;-66
2021/03/23 13:10:51;;;;;;;3.35;2.45;;;8.60;99.90;;;;;;4953539;29;20230;-65
2021/03/23 13:13:26;;;;;;;4.13;2.22;;;8.40;99.90;;;;;;4949127;29;20236;-66
2021/03/23 13:15:54;;;;;;;3.75;2.33;;;8.50;99.90;;;;;;4934208;29;20212;-69
2021/03/23 13:18:24;;;;;;;3.67;2.45;;;8.70;99.90;;;;;;4935218;29;20169;-67
2021/03/23 13:20:54;;;;;;;3.17;1.70;;;8.60;99.90;;;;;;4934652;29;20208;-65
2021/03/23 13:23:28;;;;;;;2.65;1.88;;;8.50;99.90;;;;;;4941255;29;20287;-65
2021/03/23 13:26:01;;;;;;;8.73;2.60;;;8.50;99.90;;;;;;4953116;28;20223;-66
2021/03/23 13:28:48;;;;;;;2.88;1.88;;;8.50;99.90;;;;;;4953354;29;20194;-66